Time;durP1;ratioP1;P1;durP2;ratioP2;P2;SDS_P1;SDS_P2;PMS_P1;PMS_P2;Temp;Humidity;BMP_temperature;BMP_pressure;BME280_temperature;BME280_humidity;BME280_pressure;Samples;Min_cycle;Max_cycle;Signal;HPM_P1;HPM_P2
2022/04/30 00:13:04;;;;;;;63.70;32.90;;;;;;;5.25;56.93;99452.42;433070;1270;98332;-45
2022/04/30 00:23:19;;;;;;;78.50;42.30;;;;;;;5.09;57.31;99451.48;433057;1270;112082;-41
2022/04/30 00:33:27;;;;;;;83.80;40.40;;;;;;;4.84;57.86;99449.34;433101;1270;108627;-45
2022/04/30 00:43:43;;;;;;;87.60;40.50;;;;;;;4.55;58.22;99454.20;433165;1270;99257;-45
2022/04/30 00:53:54;;;;;;;86.70;43.30;;;;;;;4.22;58.55;99451.82;433299;1270;112418;-42
2022/04/30 01:04:01;;;;;;;80.60;38.10;;;;;;;3.96;58.93;99443.15;433115;1270;108963;-44
2022/04/30 01:14:09;;;;;;;76.60;37.50;;;;;;;3.87;59.57;99435.52;433070;1270;98857;-43
2022/04/30 01:24:18;;;;;;;81.50;41.40;;;;;;;3.93;59.89;99436.29;433218;1270;112453;-43
2022/04/30 01:44:51;;;;;;;86.90;45.60;;;;;;;3.55;60.76;99434.52;432581;1269;98053;-44
2022/04/30 01:54:59;;;;;;;97.40;48.20;;;;;;;3.42;60.88;99434.42;432496;1270;107173;-41
2022/04/30 02:05:07;;;;;;;83.20;42.10;;;;;;;3.15;60.82;99430.41;432524;1270;101629;-43
2022/04/30 02:15:16;;;;;;;64.00;31.20;;;;;;;3.04;61.22;99431.42;432639;1268;112935;-43
2022/04/30 02:25:24;;;;;;;58.20;32.20;;;;;;;3.01;61.57;99424.60;432518;1270;109337;-41
2022/04/30 02:35:33;;;;;;;60.30;33.50;;;;;;;3.09;61.67;99415.77;432592;1270;99284;-44
2022/04/30 02:55:49;;;;;;;113.70;53.50;;;;;;;3.26;62.15;99404.48;432524;1270;97950;-46
2022/04/30 03:05:57;;;;;;;98.00;50.40;;;;;;;3.16;62.43;99398.52;432732;1270;112460;-41
2022/04/30 03:26:33;;;;;;;105.70;52.40;;;;;;;3.21;62.92;99396.23;432560;1270;99585;-42
2022/04/30 03:36:41;;;;;;;80.90;42.00;;;;;;;3.35;63.15;99393.77;432733;1270;112573;-44
2022/04/30 03:46:48;;;;;;;82.70;40.30;;;;;;;3.68;63.09;99385.82;432414;1270;109040;-42
2022/04/30 03:56:56;;;;;;;76.00;42.10;;;;;;;4.07;62.97;99388.59;432505;1270;99156;-41
2022/04/30 04:07:04;;;;;;;95.80;50.90;;;;;;;4.53;63.18;99385.63;432546;1270;109264;-43
2022/04/30 04:27:36;;;;;;;99.20;51.60;;;;;;;6.46;62.96;99376.02;432529;1270;112382;-44
2022/04/30 04:37:44;;;;;;;88.30;50.30;;;;;;;8.06;62.08;99377.19;432462;1270;109264;-45
2022/04/30 04:47:52;;;;;;;87.00;50.90;;;;;;;9.80;61.04;99371.83;432654;1270;98833;-45
2022/04/30 04:57:59;;;;;;;78.70;47.00;;;;;;;10.73;59.46;99377.69;432567;1270;113148;-42
2022/04/30 05:08:07;;;;;;;80.00;46.70;;;;;;;11.65;58.93;99368.59;432616;1270;108856;-41
2022/04/30 05:18:14;;;;;;;82.90;45.40;;;;;;;12.66;57.96;99373.58;432563;1270;99257;-45
2022/04/30 05:38:28;;;;;;;63.50;37.00;;;;;;;13.52;55.45;99376.08;432583;1270;99385;-43
2022/04/30 05:48:35;;;;;;;57.40;30.40;;;;;;;13.90;54.56;99379.70;432521;1269;112465;-45
2022/04/30 05:58:42;;;;;;;56.60;29.70;;;;;;;13.92;53.50;99386.78;432498;1270;108712;-45
2022/04/30 06:08:50;;;;;;;55.00;28.40;;;;;;;14.04;52.74;99383.16;432437;1269;99258;-44
2022/04/30 06:18:57;;;;;;;49.80;26.90;;;;;;;13.85;52.12;99384.45;432157;1270;301140;-44
2022/04/30 06:29:18;;;;;;;46.20;25.10;;;;;;;13.93;51.92;99384.34;432532;1270;98030;-46
2022/04/30 06:39:25;;;;;;;46.50;22.60;;;;;;;14.20;51.51;99381.20;432563;1270;112472;-42
2022/04/30 06:49:33;;;;;;;36.10;20.80;;;;;;;14.49;51.19;99378.34;432620;1270;108514;-44
2022/04/30 06:59:40;;;;;;;31.10;16.60;;;;;;;14.79;50.42;99375.98;432663;1270;98793;-42
2022/04/30 07:09:48;;;;;;;24.10;12.40;;;;;;;14.64;49.03;99378.71;432575;1270;108783;-45
2022/04/30 07:19:55;;;;;;;19.70;11.60;;;;;;;14.77;47.89;99381.27;432575;1270;99270;-44
2022/04/30 07:30:01;;;;;;;18.20;10.40;;;;;;;14.75;46.62;99384.07;432483;1270;112027;-45
2022/04/30 07:40:10;;;;;;;15.10;6.50;;;;;;;14.91;45.91;99383.89;432542;1270;109127;-42
2022/04/30 07:50:17;;;;;;;19.20;8.30;;;;;;;14.98;44.68;99385.45;432573;1270;98062;-42
2022/04/30 08:00:25;;;;;;;11.10;6.70;;;;;;;15.42;44.22;99378.02;432578;1269;108889;-47
2022/04/30 08:10:32;;;;;;;11.10;5.70;;;;;;;15.66;43.22;99378.27;432637;1270;98044;-44
2022/04/30 08:20:40;;;;;;;12.60;6.10;;;;;;;15.42;41.43;99385.53;432594;1270;113150;-44
2022/04/30 08:30:47;;;;;;;13.10;5.60;;;;;;;15.19;40.54;99390.44;432566;1270;108088;-43
2022/04/30 08:40:55;;;;;;;7.80;4.20;;;;;;;15.13;39.81;99385.80;432538;1270;98665;-45
2022/04/30 09:01:10;;;;;;;13.90;6.80;;;;;;;15.34;39.14;99373.67;432533;1270;99285;-44
2022/04/30 09:11:18;;;;;;;8.30;4.40;;;;;;;15.51;39.38;99369.27;432505;1270;112643;-41
2022/04/30 09:21:25;;;;;;;6.90;4.20;;;;;;;15.90;38.53;99363.60;432592;1270;108874;-45
2022/04/30 09:31:33;;;;;;;6.30;4.20;;;;;;;16.19;36.54;99354.08;432611;1271;98044;-42
2022/04/30 09:41:40;;;;;;;9.60;4.10;;;;;;;16.04;36.51;99349.38;432530;1271;108790;-47
2022/04/30 10:12:22;;;;;;;11.90;5.60;;;;;;;16.05;35.21;99330.05;432610;1270;108425;-45
2022/04/30 10:22:30;;;;;;;7.60;6.10;;;;;;;16.66;35.02;99324.71;432784;1269;98037;-45
2022/04/30 10:42:46;;;;;;;12.30;7.80;;;;;;;16.79;35.25;99311.17;432773;1270;99256;-42
2022/04/30 10:52:54;;;;;;;12.20;7.60;;;;;;;17.08;35.81;99294.15;432626;1270;112567;-42
2022/04/30 11:03:08;;;;;;;11.10;5.40;;;;;;;17.31;36.05;99286.04;432535;1270;108649;-45
2022/04/30 11:13:16;;;;;;;8.70;4.90;;;;;;;16.97;34.66;99289.20;432491;1270;98841;-42
2022/04/30 11:23:23;;;;;;;6.70;5.00;;;;;;;16.97;34.91;99273.55;432636;1270;108829;-43
2022/04/30 11:33:32;;;;;;;6.30;4.50;;;;;;;16.83;34.42;99264.93;432590;1270;98152;-44
2022/04/30 11:43:40;;;;;;;7.50;5.00;;;;;;;16.54;34.57;99259.21;432564;1273;111490;-46
2022/04/30 11:53:47;;;;;;;9.50;4.90;;;;;;;16.40;34.54;99255.23;432393;1272;108671;-40
2022/04/30 12:14:04;;;;;;;5.20;4.30;;;;;;;16.62;34.97;99237.77;432359;1273;109189;-46
2022/04/30 12:34:44;;;;;;;7.30;3.40;;;;;;;16.63;33.80;99226.36;432586;1271;112433;-45
2022/04/30 12:44:51;;;;;;;6.40;3.90;;;;;;;16.78;32.87;99215.18;432659;1271;108743;-46
2022/04/30 12:54:58;;;;;;;6.20;3.40;;;;;;;16.88;32.75;99209.05;432684;1271;99267;-42
2022/04/30 13:05:04;;;;;;;5.60;3.40;;;;;;;17.13;32.49;99198.96;432498;1271;108857;-44
2022/04/30 13:15:12;;;;;;;4.50;3.20;;;;;;;17.12;32.38;99188.80;432664;1271;98861;-44
2022/04/30 13:25:19;;;;;;;5.70;3.50;;;;;;;17.24;32.09;99185.86;432572;1271;113209;-47
2022/04/30 13:35:26;;;;;;;7.50;3.30;;;;;;;17.12;31.22;99171.59;432548;1271;108883;-45
2022/04/30 13:45:34;;;;;;;5.10;3.90;;;;;;;17.31;32.38;99162.17;432737;1271;99183;-44
2022/04/30 14:05:49;;;;;;;5.80;3.90;;;;;;;17.21;31.99;99150.85;432556;1273;98362;-45
2022/04/30 14:16:00;;;;;;;8.50;5.20;;;;;;;17.40;32.67;99147.61;432599;1271;112503;-45
2022/04/30 14:26:08;;;;;;;9.50;5.20;;;;;;;17.29;32.46;99134.42;432465;1271;108758;-43
2022/04/30 14:36:15;;;;;;;10.10;4.50;;;;;;;17.15;33.10;99124.95;432540;1271;98701;-46
2022/04/30 14:46:23;;;;;;;11.30;5.50;;;;;;;17.22;33.38;99120.44;432603;1271;108783;-47
2022/04/30 14:56:31;;;;;;;10.10;4.70;;;;;;;17.05;33.53;99117.64;432517;1271;98081;-45
2022/04/30 15:06:38;;;;;;;12.10;5.10;;;;;;;17.01;33.60;99109.98;432799;1271;112471;-44
2022/04/30 15:16:44;;;;;;;9.50;4.90;;;;;;;17.04;33.77;99107.11;432531;1271;108856;-44
2022/04/30 15:26:51;;;;;;;6.60;4.90;;;;;;;16.96;33.52;99104.27;432532;1271;99260;-44
2022/04/30 15:36:58;;;;;;;9.50;4.90;;;;;;;16.95;33.61;99102.62;432540;1271;107922;-44
2022/04/30 15:57:30;;;;;;;7.90;5.40;;;;;;;16.95;33.41;99084.62;432703;1271;111423;-45
2022/04/30 16:17:43;;;;;;;9.70;4.90;;;;;;;16.56;33.54;99077.33;432650;1271;99239;-43
2022/04/30 16:27:51;;;;;;;8.00;4.50;;;;;;;16.38;33.76;99073.14;432372;1273;109072;-45
2022/04/30 16:37:57;;;;;;;6.00;3.70;;;;;;;16.08;33.86;99072.92;432559;1271;99265;-41
2022/04/30 16:48:04;;;;;;;4.90;3.90;;;;;;;15.79;33.92;99066.80;432487;1271;112478;-45
2022/04/30 16:58:13;;;;;;;8.80;4.80;;;;;;;15.50;34.41;99072.24;432618;1271;108895;-42
2022/04/30 17:08:20;;;;;;;5.70;4.60;;;;;;;15.25;34.63;99073.82;432807;1271;99141;-45
2022/04/30 17:18:27;;;;;;;11.10;4.70;;;;;;;15.03;35.13;99075.14;432487;1271;110917;-43
2022/04/30 17:28:34;;;;;;;8.80;5.40;;;;;;;14.77;35.53;99075.19;432593;1271;99276;-46
2022/04/30 17:38:41;;;;;;;11.90;5.90;;;;;;;14.50;35.89;99069.96;432544;1271;111297;-44
2022/04/30 17:48:49;;;;;;;12.40;5.60;;;;;;;14.20;36.55;99070.33;432456;1271;108795;-42
2022/04/30 17:58:57;;;;;;;9.10;6.20;;;;;;;13.80;37.11;99071.91;432563;1271;99305;-44
2022/04/30 18:09:04;;;;;;;15.30;7.40;;;;;;;13.43;37.49;99072.87;432619;1271;109016;-45
2022/04/30 18:19:14;;;;;;;16.30;10.00;;;;;;;13.00;38.30;99082.46;432173;1271;620026;-43
2022/04/30 18:29:22;;;;;;;23.30;13.20;;;;;;;12.54;39.13;99096.48;432614;1271;111952;-45
2022/04/30 18:39:31;;;;;;;20.10;12.20;;;;;;;12.04;39.98;99115.16;432624;1271;108857;-40
2022/04/30 18:49:37;;;;;;;22.40;13.50;;;;;;;11.83;40.46;99111.34;432579;1271;97967;-40
2022/04/30 19:10:07;;;;;;;20.90;10.80;;;;;;;11.68;41.07;99126.66;432592;1271;99392;-43
2022/04/30 19:20:16;;;;;;;23.70;11.70;;;;;;;11.35;41.61;99125.60;432687;1271;112392;-45
2022/04/30 19:30:23;;;;;;;23.40;11.50;;;;;;;11.20;41.91;99123.77;432344;1273;108874;-46
2022/04/30 19:40:30;;;;;;;26.00;12.80;;;;;;;11.01;42.25;99129.66;432520;1271;99374;-45
2022/04/30 19:50:38;;;;;;;25.10;14.40;;;;;;;10.83;42.34;99127.59;432523;1270;108945;-43
2022/04/30 20:00:45;;;;;;;38.50;22.40;;;;;;;10.75;42.47;99130.38;432573;1270;99304;-44
2022/04/30 20:21:18;;;;;;;27.70;16.30;;;;;;;10.45;42.73;99121.26;432486;1271;108795;-43
2022/04/30 20:51:56;;;;;;;18.60;9.60;;;;;;;10.26;43.29;99123.98;432670;1270;98937;-43
2022/04/30 21:12:11;;;;;;;14.00;8.10;;;;;;;10.26;43.31;99124.38;432638;1270;108717;-41
2022/04/30 21:22:18;;;;;;;11.60;7.30;;;;;;;10.29;43.27;99119.42;432579;1270;99157;-41
2022/04/30 21:32:25;;;;;;;11.70;6.00;;;;;;;10.35;43.18;99120.55;432479;1270;108758;-46
2022/04/30 21:42:32;;;;;;;13.70;7.00;;;;;;;10.34;43.11;99123.05;432472;1270;98963;-43
2022/04/30 21:52:40;;;;;;;14.90;7.50;;;;;;;10.22;43.10;99123.58;432332;1270;112561;-45
2022/04/30 22:02:47;;;;;;;16.50;8.80;;;;;;;10.00;43.41;99130.05;432535;1270;108279;-45
2022/04/30 22:12:55;;;;;;;16.40;8.00;;;;;;;9.61;43.84;99132.68;432751;1271;98870;-45
2022/04/30 22:23:03;;;;;;;19.00;9.20;;;;;;;8.88;44.52;99135.04;432587;1269;108859;-42
2022/04/30 22:33:10;;;;;;;27.40;12.30;;;;;;;8.17;45.62;99131.90;432537;1270;98859;-44
2022/04/30 22:43:17;;;;;;;31.20;15.20;;;;;;;7.78;46.84;99125.92;432644;1270;112401;-45
2022/04/30 22:53:24;;;;;;;23.40;12.40;;;;;;;7.37;47.79;99128.91;432560;1270;108816;-45
2022/04/30 23:03:32;;;;;;;31.80;15.10;;;;;;;6.92;48.39;99131.08;432619;1270;99262;-46
2022/04/30 23:13:39;;;;;;;29.70;15.20;;;;;;;6.62;49.13;99129.77;432601;1270;112413;-47
2022/04/30 23:23:46;;;;;;;22.10;12.40;;;;;;;6.48;49.89;99122.44;432600;1270;109059;-45
2022/04/30 23:33:53;;;;;;;25.40;14.40;;;;;;;6.31;50.64;99128.04;432491;1270;98864;-41
2022/04/30 23:44:02;;;;;;;34.50;15.80;;;;;;;6.00;51.00;99122.76;432419;1269;112111;-41
2022/04/30 23:54:09;;;;;;;34.30;16.40;;;;;;;5.74;51.86;99121.19;432623;1270;109149;-43
